createdAt,value
2023-03-21T00:02:47.328Z,12.35
2023-03-21T00:05:53.876Z,7.80
2023-03-21T00:08:56.376Z,8.23
2023-03-21T00:12:01.735Z,10.05
2023-03-21T00:15:12.941Z,9.63
2023-03-21T00:18:17.316Z,9.30
2023-03-21T00:24:52.172Z,10.45
2023-03-21T00:28:07.875Z,9.15
2023-03-21T00:31:13.658Z,9.73
2023-03-21T00:34:31.653Z,9.48
2023-03-21T00:37:45.461Z,8.77
2023-03-21T00:40:51.157Z,11.20
2023-03-21T00:43:55.594Z,10.07
2023-03-21T00:47:07.385Z,8.63
2023-03-21T00:50:11.939Z,8.88
2023-03-21T00:53:17.123Z,8.10
2023-03-21T00:56:19.453Z,8.95
2023-03-21T00:59:21.725Z,8.73
2023-03-21T01:02:26.734Z,9.70
2023-03-21T01:05:49.107Z,10.00
2023-03-21T01:08:53.249Z,10.07
2023-03-21T01:11:59.531Z,8.35
2023-03-21T01:15:01.883Z,12.10
2023-03-21T01:18:04.215Z,9.45
2023-03-21T01:21:09.828Z,9.55
2023-03-21T01:24:17.344Z,12.52
2023-03-21T01:27:22.807Z,8.73
2023-03-21T01:30:28.643Z,9.45
2023-03-21T01:33:37.265Z,9.98
2023-03-21T01:36:47.226Z,10.25
2023-03-21T01:39:53.768Z,10.30
2023-03-21T01:42:59.523Z,10.02
2023-03-21T01:46:23.986Z,9.95
2023-03-21T01:49:46.273Z,10.73
2023-03-21T01:52:55.108Z,10.27
2023-03-21T01:56:10.930Z,9.20
2023-03-21T01:59:45.289Z,11.45
2023-03-21T02:03:17.049Z,11.88
2023-03-21T02:06:46.825Z,11.48
2023-03-21T02:10:16.507Z,9.20
2023-03-21T02:13:25.312Z,9.77
2023-03-21T02:16:46.441Z,7.47
2023-03-21T02:20:26.910Z,9.98
2023-03-21T02:23:33.637Z,12.75
2023-03-21T02:26:46.475Z,9.25
2023-03-21T02:30:28.299Z,10.75
2023-03-21T02:33:59.476Z,8.93
2023-03-21T02:37:36.724Z,10.18
2023-03-21T02:41:01.750Z,9.15
2023-03-21T02:44:19.320Z,9.52
2023-03-21T02:47:48.768Z,11.07
2023-03-21T02:50:58.872Z,8.18
2023-03-21T02:54:28.253Z,9.20
2023-03-21T02:57:42.195Z,7.43
2023-03-21T03:00:47.503Z,8.10
2023-03-21T03:04:03.110Z,7.40
2023-03-21T03:07:32.932Z,7.47
2023-03-21T03:10:53.178Z,7.88
2023-03-21T03:14:25.461Z,7.80
2023-03-21T03:17:32.328Z,8.60
2023-03-21T03:20:53.173Z,7.60
2023-03-21T03:24:20.565Z,7.75
2023-03-21T03:27:32.509Z,8.70
2023-03-21T03:30:46.578Z,7.72
2023-03-21T03:33:57.499Z,9.10
2023-03-21T03:37:05.349Z,11.00
2023-03-21T03:40:25.565Z,8.20
2023-03-21T03:43:56.372Z,7.50
2023-03-21T03:47:07.898Z,6.45
2023-03-21T03:50:31.903Z,8.70
2023-03-21T03:53:44.965Z,8.60
2023-03-21T03:56:50.855Z,6.90
2023-03-21T03:59:53.725Z,5.82
2023-03-21T04:03:17.207Z,6.43
2023-03-21T04:06:20.036Z,8.82
2023-03-21T04:09:40.912Z,9.13
2023-03-21T04:12:55.114Z,9.07
2023-03-21T04:16:09.908Z,9.52
2023-03-21T04:19:12.520Z,8.55
2023-03-21T04:22:14.918Z,9.18
2023-03-21T04:25:32.585Z,8.15
2023-03-21T04:28:37.309Z,8.50
2023-03-21T04:32:03.552Z,7.43
2023-03-21T04:35:08.424Z,6.78
2023-03-21T04:38:11.156Z,7.30
2023-03-21T04:41:13.770Z,8.10
2023-03-21T04:44:22.017Z,7.78
2023-03-21T04:47:26.672Z,6.40
2023-03-21T04:50:35.607Z,9.15
2023-03-21T04:53:38.544Z,6.60
2023-03-21T04:56:43.111Z,6.95
2023-03-21T04:59:49.888Z,6.65
2023-03-21T05:02:52.141Z,8.98
2023-03-21T05:05:57.420Z,10.38
2023-03-21T05:09:05.508Z,8.73
2023-03-21T05:12:08.764Z,7.57
2023-03-21T05:15:11.813Z,7.20
2023-03-21T05:18:14.137Z,8.13
2023-03-21T05:21:41.581Z,8.25
2023-03-21T05:24:50.859Z,8.20
2023-03-21T05:28:31.788Z,8.52
2023-03-21T05:31:36.568Z,7.65
2023-03-21T05:34:44.142Z,9.23
2023-03-21T05:37:48.951Z,8.55
2023-03-21T05:40:54.315Z,8.70
2023-03-21T05:43:56.646Z,7.40
2023-03-21T05:46:59.006Z,8.98
2023-03-21T05:50:18.101Z,8.15
2023-03-21T05:53:29.091Z,8.63
2023-03-21T05:56:34.653Z,9.77
2023-03-21T05:59:42.729Z,8.82
2023-03-21T06:02:45.776Z,6.82
2023-03-21T06:06:09.720Z,6.95
2023-03-21T06:09:17.940Z,7.22
2023-03-21T06:12:30.542Z,8.10
2023-03-21T06:15:41.059Z,8.43
2023-03-21T06:18:53.997Z,7.20
2023-03-21T06:22:09.718Z,6.47
2023-03-21T06:25:14.464Z,6.45
2023-03-21T06:28:16.948Z,6.28
2023-03-21T06:31:23.737Z,5.78
2023-03-21T06:34:27.111Z,5.05
2023-03-21T06:37:36.631Z,6.10
2023-03-21T06:40:41.638Z,6.32
2023-03-21T06:43:45.517Z,8.63
2023-03-21T06:46:52.829Z,6.32
2023-03-21T06:49:57.639Z,5.57
2023-03-21T06:53:03.130Z,5.95
2023-03-21T06:56:11.382Z,8.63
2023-03-21T06:59:15.640Z,7.78
2023-03-21T07:02:29.062Z,6.93
2023-03-21T07:06:03.514Z,6.90
2023-03-21T07:09:06.895Z,6.55
2023-03-21T07:12:10.131Z,7.28
2023-03-21T07:15:34.543Z,9.20
2023-03-21T07:18:37.227Z,7.25
2023-03-21T07:21:42.029Z,7.00
2023-03-21T07:25:04.019Z,8.15
2023-03-21T07:28:17.982Z,7.75
2023-03-21T07:31:20.489Z,7.22
2023-03-21T07:34:23.973Z,9.50
2023-03-21T07:37:30.875Z,6.45
2023-03-21T07:40:38.660Z,5.82
2023-03-21T07:43:43.887Z,7.85
2023-03-21T07:46:48.336Z,11.35
2023-03-21T07:49:51.331Z,6.18
2023-03-21T07:52:54.221Z,9.75
2023-03-21T07:55:57.095Z,5.80
2023-03-21T07:59:02.162Z,5.97
2023-03-21T08:02:12.280Z,5.72
2023-03-21T08:05:19.436Z,6.70
2023-03-21T08:08:21.650Z,5.93
2023-03-21T08:11:27.523Z,5.50
2023-03-21T08:14:29.894Z,8.50
2023-03-21T08:17:38.068Z,8.13
2023-03-21T08:20:41.655Z,5.15
2023-03-21T08:23:46.447Z,6.22
2023-03-21T08:26:49.790Z,6.05
2023-03-21T08:29:54.856Z,7.18
2023-03-21T08:33:04.281Z,4.43
2023-03-21T08:36:07.329Z,6.22
2023-03-21T08:39:14.818Z,5.00
2023-03-21T08:42:17.312Z,5.68
2023-03-21T08:45:19.692Z,4.68
2023-03-21T08:48:24.604Z,10.25
2023-03-21T08:51:27.155Z,4.97
2023-03-21T08:54:29.452Z,4.28
2023-03-21T08:57:33.963Z,4.93
2023-03-21T09:00:38.665Z,4.43
2023-03-21T09:03:41.665Z,4.43
2023-03-21T09:06:49.668Z,5.13
2023-03-21T09:10:19.154Z,4.55
2023-03-21T09:13:22.390Z,4.28
2023-03-21T09:16:25.103Z,7.00
2023-03-21T09:19:32.285Z,3.35
2023-03-21T09:22:39.305Z,3.72
2023-03-21T09:25:47.459Z,4.75
2023-03-21T09:28:53.206Z,5.18
2023-03-21T09:31:55.501Z,3.65
2023-03-21T09:34:57.887Z,5.15
2023-03-21T09:38:03.896Z,4.53
2023-03-21T09:41:09.171Z,3.53
2023-03-21T09:44:21.379Z,3.78
2023-03-21T09:47:34.799Z,3.67
2023-03-21T09:50:40.525Z,4.43
2023-03-21T09:53:50.062Z,4.10
2023-03-21T09:56:58.884Z,6.10
2023-03-21T10:00:16.473Z,5.03
2023-03-21T10:03:26.256Z,3.70
2023-03-21T10:06:34.758Z,3.90
2023-03-21T10:09:41.125Z,4.30
2023-03-21T10:12:46.580Z,3.45
2023-03-21T10:15:49.295Z,4.45
2023-03-21T10:18:56.528Z,5.00
2023-03-21T10:22:02.050Z,5.07
2023-03-21T10:25:08.452Z,4.13
2023-03-21T10:28:18.737Z,3.45
2023-03-21T10:31:26.693Z,3.65
2023-03-21T10:34:40.112Z,5.03
2023-03-21T10:37:42.412Z,3.97
2023-03-21T10:40:45.236Z,4.57
2023-03-21T10:47:09.345Z,5.13
2023-03-21T10:53:28.538Z,3.63
2023-03-21T10:56:36.452Z,3.53
2023-03-21T11:00:09.817Z,2.90
2023-03-21T11:03:23.667Z,4.50
2023-03-21T11:06:35.036Z,4.68
2023-03-21T11:09:52.483Z,4.38
2023-03-21T11:13:02.241Z,3.58
2023-03-21T11:16:26.190Z,2.78
2023-03-21T11:19:36.135Z,4.45
2023-03-21T11:22:46.252Z,6.15
2023-03-21T11:25:54.794Z,3.15
2023-03-21T11:28:59.512Z,4.47
2023-03-21T11:32:10.929Z,5.20
2023-03-21T11:35:22.346Z,4.03
2023-03-21T11:38:29.620Z,4.32
2023-03-21T11:41:34.703Z,3.95
2023-03-21T11:44:44.072Z,6.63
2023-03-21T11:47:49.426Z,5.57
2023-03-21T11:54:13.206Z,4.82
2023-03-21T11:57:46.630Z,7.40
2023-03-21T12:00:54.831Z,5.88
2023-03-21T12:04:07.886Z,3.90
2023-03-21T12:07:27.691Z,3.72
2023-03-21T12:10:30.072Z,4.45
2023-03-21T12:13:40.206Z,4.18
2023-03-21T12:17:15.149Z,11.40
2023-03-21T12:20:38.568Z,4.43
2023-03-21T12:23:46.921Z,5.30
2023-03-21T12:27:00.030Z,4.22
2023-03-21T12:30:23.856Z,6.40
2023-03-21T12:34:08.741Z,4.45
2023-03-21T12:37:26.386Z,4.70
2023-03-21T12:44:02.772Z,5.78
2023-03-21T12:47:11.243Z,4.65
2023-03-21T12:50:30.272Z,4.38
2023-03-21T12:53:57.513Z,7.10
2023-03-21T12:57:18.037Z,3.65
2023-03-21T13:00:35.393Z,5.00
2023-03-21T13:03:45.353Z,3.97
2023-03-21T13:06:52.548Z,6.75
2023-03-21T13:09:58.000Z,8.35
2023-03-21T13:13:20.411Z,3.65
2023-03-21T13:16:27.130Z,9.80
2023-03-21T13:19:52.044Z,3.83
2023-03-21T13:22:56.825Z,3.97
2023-03-21T13:26:01.736Z,4.25
2023-03-21T13:29:13.859Z,2.90
2023-03-21T13:32:39.323Z,3.75
2023-03-21T13:35:48.177Z,3.55
2023-03-21T13:38:52.581Z,2.30
2023-03-21T13:42:06.021Z,2.50
2023-03-21T13:45:11.452Z,3.97
2023-03-21T13:52:01.050Z,3.05
2023-03-21T13:55:04.236Z,3.75
2023-03-21T13:58:36.950Z,6.43
2023-03-21T14:02:00.205Z,3.38
2023-03-21T14:05:07.346Z,2.90
2023-03-21T14:08:25.038Z,2.85
2023-03-21T14:11:32.732Z,3.97
2023-03-21T14:14:48.895Z,3.53
2023-03-21T14:18:10.949Z,3.47
2023-03-21T14:21:30.299Z,3.22
2023-03-21T14:24:37.366Z,5.53
2023-03-21T14:27:47.013Z,4.82
2023-03-21T14:31:00.173Z,3.00
2023-03-21T14:34:04.019Z,2.72
2023-03-21T14:37:11.681Z,3.78
2023-03-21T14:40:28.558Z,4.50
2023-03-21T14:43:35.714Z,4.38
2023-03-21T14:46:39.190Z,4.18
2023-03-21T14:49:41.607Z,3.35
2023-03-21T14:52:47.820Z,6.90
2023-03-21T14:56:02.836Z,3.63
2023-03-21T14:59:09.546Z,4.18
2023-03-21T15:02:28.437Z,3.38
2023-03-21T15:05:37.828Z,4.47
2023-03-21T15:08:53.308Z,5.00
2023-03-21T15:11:57.387Z,3.88
2023-03-21T15:15:03.301Z,4.07
2023-03-21T15:18:07.031Z,3.17
2023-03-21T15:21:26.719Z,3.22
2023-03-21T15:24:36.117Z,2.85
2023-03-21T15:27:44.089Z,3.13
2023-03-21T15:30:56.476Z,4.60
2023-03-21T15:33:58.840Z,3.53
2023-03-21T15:37:17.272Z,3.78
2023-03-21T15:40:31.543Z,5.80
2023-03-21T15:43:40.367Z,5.03
2023-03-21T15:46:51.256Z,4.05
2023-03-21T15:50:06.909Z,4.63
2023-03-21T15:53:19.784Z,5.68
2023-03-21T15:56:22.797Z,4.45
2023-03-21T15:59:30.369Z,4.50
2023-03-21T16:02:35.010Z,5.05
2023-03-21T16:05:40.268Z,4.55
2023-03-21T16:08:53.430Z,4.03
2023-03-21T16:11:58.800Z,5.35
2023-03-21T16:18:06.240Z,4.95
2023-03-21T16:21:13.831Z,4.65
2023-03-21T16:24:20.954Z,5.22
2023-03-21T16:27:23.268Z,4.45
2023-03-21T16:30:26.252Z,5.72
2023-03-21T16:33:31.096Z,4.30
2023-03-21T16:36:41.658Z,6.07
2023-03-21T16:39:45.356Z,5.50
2023-03-21T16:42:47.659Z,4.68
2023-03-21T16:45:50.015Z,6.53
2023-03-21T16:48:55.156Z,6.30
2023-03-21T16:51:57.511Z,4.38
2023-03-21T16:54:59.818Z,5.18
2023-03-21T16:58:04.337Z,6.13
2023-03-21T17:01:11.623Z,4.95
2023-03-21T17:04:16.034Z,6.35
2023-03-21T17:07:18.817Z,6.18
2023-03-21T17:10:28.342Z,5.60
2023-03-21T17:13:30.697Z,5.72
2023-03-21T17:16:33.216Z,7.30
2023-03-21T17:19:35.515Z,7.63
2023-03-21T17:22:37.835Z,5.50
2023-03-21T17:25:45.028Z,6.43
2023-03-21T17:28:55.249Z,7.35
2023-03-21T17:31:59.867Z,6.20
2023-03-21T17:35:04.655Z,5.53
2023-03-21T17:38:12.872Z,6.35
2023-03-21T17:41:19.468Z,5.32
2023-03-21T17:44:21.749Z,7.15
2023-03-21T17:47:25.774Z,7.32
2023-03-21T17:50:34.710Z,6.65
2023-03-21T17:53:41.889Z,6.68
2023-03-21T17:56:44.582Z,7.47
2023-03-21T17:59:46.947Z,5.03
2023-03-21T18:02:53.475Z,10.00
2023-03-21T18:05:55.822Z,7.30
2023-03-21T18:08:59.716Z,7.25
2023-03-21T18:12:07.628Z,6.10
2023-03-21T18:15:14.392Z,6.57
2023-03-21T18:18:17.661Z,7.07
2023-03-21T18:21:22.703Z,7.20
2023-03-21T18:24:25.407Z,8.30
2023-03-21T18:27:32.709Z,6.38
2023-03-21T18:30:57.026Z,6.05
2023-03-21T18:34:03.441Z,8.35
2023-03-21T18:37:09.997Z,8.18
2023-03-21T18:40:15.612Z,8.05
2023-03-21T18:46:47.339Z,7.65
2023-03-21T18:50:19.685Z,10.30
2023-03-21T18:53:14.580Z,6.32
2023-03-21T18:57:05.944Z,9.07
2023-03-21T18:59:44.596Z,8.32
2023-03-21T19:02:50.832Z,7.13
2023-03-21T19:06:01.177Z,6.75
2023-03-21T19:09:03.649Z,7.15
2023-03-21T19:12:06.450Z,7.20
2023-03-21T19:15:17.981Z,9.10
2023-03-21T19:21:46.879Z,7.60
2023-03-21T19:24:50.273Z,7.97
2023-03-21T19:27:55.682Z,7.45
2023-03-21T19:31:04.548Z,7.70
2023-03-21T19:34:07.779Z,7.07
2023-03-21T19:37:12.501Z,7.88
2023-03-21T19:40:15.094Z,6.15
2023-03-21T19:43:33.721Z,10.43
2023-03-21T19:46:36.521Z,6.18
2023-03-21T19:50:40.127Z,7.28
2023-03-21T19:53:11.362Z,9.35
2023-03-21T19:56:22.317Z,9.95
2023-03-21T19:59:30.056Z,10.57
2023-03-21T20:02:36.051Z,8.45
2023-03-21T20:05:39.552Z,8.50
2023-03-21T20:12:07.638Z,6.90
2023-03-21T20:15:18.299Z,7.53
2023-03-21T20:18:24.279Z,7.78
2023-03-21T20:21:34.754Z,6.47
2023-03-21T20:24:45.231Z,7.28
2023-03-21T20:27:48.213Z,6.05
2023-03-21T20:30:57.021Z,7.72
2023-03-21T20:34:02.623Z,6.80
2023-03-21T20:37:06.224Z,6.75
2023-03-21T20:40:13.368Z,8.27
2023-03-21T20:44:04.969Z,7.07
2023-03-21T20:46:40.287Z,9.10
2023-03-21T20:49:45.374Z,10.13
2023-03-21T20:53:04.933Z,7.43
2023-03-21T20:56:09.280Z,7.82
2023-03-21T20:59:20.833Z,8.20
2023-03-21T21:02:27.662Z,7.68
2023-03-21T21:05:34.902Z,9.18
2023-03-21T21:08:38.697Z,8.93
2023-03-21T21:15:03.469Z,8.32
2023-03-21T21:18:07.643Z,8.57
2023-03-21T21:21:14.042Z,7.47
2023-03-21T21:24:16.496Z,7.32
2023-03-21T21:27:23.471Z,7.75
2023-03-21T21:30:29.555Z,9.65
2023-03-21T21:33:34.398Z,7.22
2023-03-21T21:36:37.194Z,7.10
2023-03-21T21:39:44.331Z,8.82
2023-03-21T21:42:49.858Z,7.38
2023-03-21T21:48:59.962Z,9.25
2023-03-21T21:52:04.899Z,9.00
2023-03-21T21:55:13.241Z,8.23
2023-03-21T21:58:21.356Z,9.32
2023-03-21T22:01:34.760Z,9.30
2023-03-21T22:04:37.156Z,8.13
2023-03-21T22:07:44.309Z,8.85
2023-03-21T22:10:49.068Z,9.27
2023-03-21T22:13:53.610Z,12.88
2023-03-21T22:16:55.942Z,11.20
2023-03-21T22:20:06.519Z,9.32
2023-03-21T22:23:08.985Z,13.65
2023-03-21T22:26:14.070Z,9.77
2023-03-21T22:29:16.615Z,10.63
2023-03-21T22:32:26.642Z,11.75
2023-03-21T22:35:28.999Z,11.07
2023-03-21T22:38:34.479Z,12.45
2023-03-21T22:41:36.773Z,9.48
2023-03-21T22:44:41.348Z,11.50
2023-03-21T22:47:43.641Z,14.25
2023-03-21T22:50:48.679Z,9.88
2023-03-21T22:53:50.936Z,14.90
2023-03-21T22:56:53.265Z,10.82
2023-03-21T22:59:55.642Z,10.25
2023-03-21T23:02:59.574Z,14.23
2023-03-21T23:06:01.851Z,13.88
2023-03-21T23:09:06.481Z,10.95
2023-03-21T23:12:14.778Z,12.55
2023-03-21T23:15:19.502Z,11.13
2023-03-21T23:18:24.117Z,14.90
2023-03-21T23:21:34.634Z,12.82
2023-03-21T23:24:41.975Z,14.32
2023-03-21T23:27:46.569Z,13.50
2023-03-21T23:30:48.900Z,12.57
2023-03-21T23:33:57.038Z,13.52
2023-03-21T23:36:59.256Z,13.45
2023-03-21T23:40:01.736Z,17.27
2023-03-21T23:43:07.000Z,13.32
2023-03-21T23:46:11.510Z,11.85
2023-03-21T23:49:15.065Z,11.88
2023-03-21T23:52:17.723Z,12.88
2023-03-21T23:55:22.365Z,13.57
2023-03-21T23:58:30.934Z,13.52
